createdAt,value
2022-11-06T05:30:36.231Z,1000.50
2022-11-06T05:31:36.191Z,1000.45
2022-11-06T05:32:36.184Z,1000.37
2022-11-06T05:33:36.176Z,1000.35
2022-11-06T05:34:36.149Z,1000.33
2022-11-06T05:35:36.188Z,1000.30
2022-11-06T05:36:36.152Z,1000.30
2022-11-06T05:37:36.149Z,1000.19
2022-11-06T05:38:36.112Z,1000.15
2022-11-06T05:39:41.423Z,1000.24
2022-11-06T05:40:37.103Z,1000.20
2022-11-06T05:41:36.074Z,1000.18
2022-11-06T05:42:36.064Z,1000.21
2022-11-06T05:43:36.074Z,1000.19
2022-11-06T05:44:36.079Z,1000.21
2022-11-06T05:45:36.070Z,1000.18
2022-11-06T05:46:48.324Z,1000.24
2022-11-06T05:47:37.026Z,1000.17
2022-11-06T05:48:35.999Z,1000.12
2022-11-06T05:49:36.006Z,1000.16
2022-11-06T05:50:35.982Z,1000.11
2022-11-06T05:51:35.986Z,1000.09
2022-11-06T05:52:35.956Z,1000.09
2022-11-06T05:53:36.078Z,999.98
2022-11-06T05:54:35.937Z,999.99
2022-11-06T05:55:35.921Z,999.92
2022-11-06T05:56:36.038Z,999.84
2022-11-06T05:57:35.928Z,999.86
2022-11-06T05:58:35.914Z,999.87
2022-11-06T05:59:35.885Z,999.77
2022-11-06T06:00:35.871Z,999.76
2022-11-06T06:01:35.974Z,999.74
2022-11-06T06:02:36.098Z,999.84
2022-11-06T06:03:35.839Z,999.81
2022-11-06T06:04:35.827Z,999.82
2022-11-06T06:05:35.811Z,999.81
2022-11-06T06:06:35.824Z,999.86
2022-11-06T06:07:35.822Z,999.86
2022-11-06T06:08:35.874Z,999.80
2022-11-06T06:09:35.777Z,999.77
2022-11-06T06:10:35.756Z,999.75
2022-11-06T06:11:35.749Z,999.73
2022-11-06T06:12:35.744Z,999.75
2022-11-06T06:13:35.726Z,999.75
2022-11-06T06:14:35.890Z,999.63
2022-11-06T06:15:35.701Z,999.67
2022-11-06T06:16:35.715Z,999.62
2022-11-06T06:17:35.700Z,999.60
2022-11-06T06:18:35.684Z,999.57
2022-11-06T06:19:35.686Z,999.56
2022-11-06T06:20:35.707Z,999.55
2022-11-06T06:21:35.651Z,999.54
2022-11-06T06:22:35.628Z,999.55
2022-11-06T06:23:35.616Z,999.57
2022-11-06T06:24:35.674Z,999.59
2022-11-06T06:25:35.589Z,999.60
2022-11-06T06:26:35.647Z,999.53
2022-11-06T06:27:35.568Z,999.52
2022-11-06T06:28:35.576Z,999.53
2022-11-06T06:29:35.565Z,999.49
2022-11-06T06:30:35.535Z,999.47
2022-11-06T06:31:35.547Z,999.35
2022-11-06T06:32:35.678Z,999.36
2022-11-06T06:33:35.543Z,999.39
2022-11-06T06:34:35.512Z,999.40
2022-11-06T06:35:35.501Z,999.42
2022-11-06T06:36:35.501Z,999.45
2022-11-06T06:37:35.465Z,999.44
2022-11-06T06:38:35.480Z,999.48
2022-11-06T06:39:35.466Z,999.53
2022-11-06T06:40:35.520Z,999.59
2022-11-06T06:41:35.473Z,999.65
2022-11-06T06:42:35.423Z,999.64
2022-11-06T06:43:35.420Z,999.63
2022-11-06T06:44:35.392Z,999.65
2022-11-06T06:45:35.382Z,999.60
2022-11-06T06:46:35.388Z,999.59
2022-11-06T06:47:35.389Z,999.63
2022-11-06T06:48:35.345Z,999.62
2022-11-06T06:49:35.358Z,999.65
2022-11-06T06:50:35.473Z,999.65
2022-11-06T06:51:35.310Z,999.59
2022-11-06T06:52:35.371Z,999.56
2022-11-06T06:53:35.293Z,999.62
2022-11-06T06:54:35.275Z,999.64
2022-11-06T06:55:35.279Z,999.73
2022-11-06T06:56:35.252Z,999.60
2022-11-06T06:57:35.242Z,999.65
2022-11-06T06:58:35.317Z,999.56
2022-11-06T06:59:35.223Z,999.59
2022-11-06T07:00:35.339Z,999.61
2022-11-06T07:01:35.369Z,999.72
2022-11-06T07:02:35.184Z,999.70
2022-11-06T07:03:35.187Z,999.75
2022-11-06T07:04:35.197Z,999.75
2022-11-06T07:05:35.149Z,999.78
2022-11-06T07:06:35.170Z,999.76
2022-11-06T07:07:35.149Z,999.81
2022-11-06T07:08:35.146Z,999.83
2022-11-06T07:09:35.110Z,999.76
2022-11-06T07:10:35.134Z,999.80
2022-11-06T07:11:35.094Z,999.77
2022-11-06T07:12:35.090Z,999.76
2022-11-06T07:13:36.392Z,999.73
2022-11-06T07:14:35.052Z,999.74
2022-11-06T07:15:35.064Z,999.72
2022-11-06T07:16:35.068Z,999.78
2022-11-06T07:17:35.020Z,999.70
2022-11-06T07:18:35.004Z,999.76
2022-11-06T07:19:35.001Z,999.79
2022-11-06T07:20:34.989Z,999.76
2022-11-06T07:21:34.983Z,999.76
2022-11-06T07:22:37.445Z,999.74
2022-11-06T07:23:35.023Z,999.72
2022-11-06T07:24:34.941Z,999.72
2022-11-06T07:25:34.938Z,999.74
2022-11-06T07:26:34.963Z,999.67
2022-11-06T07:27:34.944Z,999.74
2022-11-06T07:28:34.900Z,999.75
2022-11-06T07:29:34.932Z,999.76
2022-11-06T07:30:34.875Z,999.71
2022-11-06T07:31:34.912Z,999.61
2022-11-06T07:32:34.878Z,999.68
2022-11-06T07:33:34.885Z,999.63
2022-11-06T07:34:34.830Z,999.59
2022-11-06T07:35:34.874Z,999.63
2022-11-06T07:36:34.857Z,999.62
2022-11-06T07:37:34.903Z,999.60
2022-11-06T07:38:34.806Z,999.58
2022-11-06T07:39:34.865Z,999.60
2022-11-06T07:40:34.782Z,999.64
2022-11-06T07:41:34.760Z,999.64
2022-11-06T07:42:38.261Z,999.71
2022-11-06T07:43:35.736Z,999.63
2022-11-06T07:44:34.726Z,999.66
2022-11-06T07:45:34.780Z,999.70
2022-11-06T07:46:34.724Z,999.68
2022-11-06T07:47:34.694Z,999.68
2022-11-06T07:48:34.686Z,999.69
2022-11-06T07:49:34.696Z,999.72
2022-11-06T07:50:34.663Z,999.75
2022-11-06T07:51:34.720Z,999.71
2022-11-06T07:52:34.637Z,999.72
2022-11-06T07:53:34.625Z,999.76
2022-11-06T07:54:34.632Z,999.81
2022-11-06T07:55:39.181Z,999.69
2022-11-06T07:56:35.619Z,999.73
2022-11-06T07:57:34.587Z,999.74
2022-11-06T07:58:34.696Z,999.76
2022-11-06T07:59:34.687Z,999.81
2022-11-06T08:00:34.805Z,999.77
2022-11-06T08:01:34.743Z,999.83
2022-11-06T08:02:34.628Z,999.80
2022-11-06T08:03:34.542Z,999.76
2022-11-06T08:04:34.545Z,999.75
2022-11-06T08:05:34.500Z,999.82
2022-11-06T08:06:34.485Z,999.73
2022-11-06T08:07:34.476Z,999.76
2022-11-06T08:08:34.463Z,999.72
2022-11-06T08:09:34.488Z,999.70
2022-11-06T08:10:34.504Z,999.68
2022-11-06T08:11:34.446Z,999.66
2022-11-06T08:12:34.418Z,999.64
2022-11-06T08:13:34.449Z,999.65
2022-11-06T08:14:38.676Z,999.59
2022-11-06T08:15:35.379Z,999.57
2022-11-06T08:16:34.374Z,999.53
2022-11-06T08:17:34.386Z,999.54
2022-11-06T08:18:34.364Z,999.62
2022-11-06T08:19:34.372Z,999.43
2022-11-06T08:20:34.334Z,999.35
2022-11-06T08:21:34.349Z,999.29
2022-11-06T08:22:34.318Z,999.33
2022-11-06T08:23:34.303Z,999.35
2022-11-06T08:24:34.288Z,999.32
2022-11-06T08:25:34.307Z,999.35
2022-11-06T08:26:34.298Z,999.33
2022-11-06T08:27:34.255Z,999.28
2022-11-06T08:28:34.243Z,999.26
2022-11-06T08:29:39.889Z,999.25
2022-11-06T08:30:35.242Z,999.22
2022-11-06T08:31:34.221Z,999.22
2022-11-06T08:32:34.218Z,999.23
2022-11-06T08:33:34.188Z,999.22
2022-11-06T08:34:34.202Z,999.21
2022-11-06T08:35:34.192Z,999.33
2022-11-06T08:36:34.162Z,999.26
2022-11-06T08:37:34.152Z,999.30
2022-11-06T08:38:34.160Z,999.24
2022-11-06T08:39:34.142Z,999.21
2022-11-06T08:40:34.121Z,999.26
2022-11-06T08:41:34.148Z,999.23
2022-11-06T08:42:34.149Z,999.19
2022-11-06T08:43:34.096Z,999.16
2022-11-06T08:44:34.062Z,999.15
2022-11-06T08:45:34.057Z,999.19
2022-11-06T08:46:34.063Z,999.17
2022-11-06T08:47:34.038Z,999.27
2022-11-06T08:48:34.024Z,999.21
2022-11-06T08:49:34.034Z,999.28
2022-11-06T08:50:34.025Z,999.33
2022-11-06T08:51:33.999Z,999.31
2022-11-06T08:52:34.454Z,999.33
2022-11-06T08:53:34.003Z,999.32
2022-11-06T08:54:33.961Z,999.32
2022-11-06T08:55:33.958Z,999.30
2022-11-06T08:56:33.959Z,999.24
2022-11-06T08:57:33.950Z,999.27
2022-11-06T08:58:33.935Z,999.29
2022-11-06T08:59:33.902Z,999.18
2022-11-06T09:00:33.905Z,999.09
2022-11-06T09:01:34.072Z,999.18
2022-11-06T09:02:33.949Z,999.10
2022-11-06T09:03:33.890Z,999.09
2022-11-06T09:04:38.646Z,999.09
2022-11-06T09:05:34.837Z,999.01
2022-11-06T09:06:33.826Z,998.96
2022-11-06T09:07:33.824Z,999.02
2022-11-06T09:08:33.824Z,999.10
2022-11-06T09:09:33.818Z,999.03
2022-11-06T09:10:33.781Z,999.01
2022-11-06T09:11:33.782Z,999.09
2022-11-06T09:12:33.794Z,999.04
2022-11-06T09:13:33.783Z,998.96
2022-11-06T09:14:33.758Z,998.98
2022-11-06T09:15:33.725Z,998.93
2022-11-06T09:16:33.713Z,998.89
2022-11-06T09:17:33.707Z,998.87
2022-11-06T09:18:33.702Z,998.80
2022-11-06T09:19:33.709Z,998.80
2022-11-06T09:20:33.694Z,998.84
2022-11-06T09:21:33.663Z,998.91
2022-11-06T09:22:33.652Z,998.97
2022-11-06T09:23:33.648Z,998.94
2022-11-06T09:24:57.679Z,998.95
2022-11-06T09:25:34.647Z,998.90
2022-11-06T09:26:33.608Z,998.88
2022-11-06T09:27:33.592Z,998.84
2022-11-06T09:28:33.586Z,998.78
2022-11-06T09:29:33.573Z,998.79
2022-11-06T09:30:33.641Z,998.76
2022-11-06T09:31:33.565Z,998.83
2022-11-06T09:32:33.541Z,998.77
2022-11-06T09:33:33.533Z,998.93
2022-11-06T09:34:33.534Z,998.87
2022-11-06T09:35:33.514Z,998.85
2022-11-06T09:36:33.526Z,998.79
2022-11-06T09:37:33.493Z,998.78
2022-11-06T09:38:33.493Z,998.75
2022-11-06T09:39:33.461Z,998.70
2022-11-06T09:40:33.455Z,998.66
2022-11-06T09:41:33.446Z,998.62
2022-11-06T09:42:33.428Z,998.58
2022-11-06T09:44:04.747Z,998.60
2022-11-06T09:44:34.405Z,998.61
2022-11-06T09:45:33.411Z,998.58
2022-11-06T09:46:33.407Z,998.58
2022-11-06T09:47:33.413Z,998.63
2022-11-06T09:48:33.368Z,998.62
2022-11-06T09:49:33.359Z,998.64
2022-11-06T09:50:33.385Z,998.65
2022-11-06T09:51:33.339Z,998.61
2022-11-06T09:52:33.321Z,998.57
2022-11-06T09:53:33.314Z,998.51
2022-11-06T09:54:33.329Z,998.52
2022-11-06T09:55:33.295Z,998.52
2022-11-06T09:56:33.285Z,998.52
2022-11-06T09:57:33.286Z,998.53
2022-11-06T09:58:33.291Z,998.50
2022-11-06T09:59:33.268Z,998.49
2022-11-06T10:00:33.260Z,998.50
2022-11-06T10:01:33.361Z,998.47
2022-11-06T10:02:33.310Z,998.53
2022-11-06T10:03:33.275Z,998.52
2022-11-06T10:04:33.212Z,998.52
2022-11-06T10:05:33.210Z,998.55
2022-11-06T10:06:33.184Z,998.59
2022-11-06T10:07:33.166Z,998.61
2022-11-06T10:08:33.187Z,998.65
2022-11-06T10:09:33.150Z,998.64
2022-11-06T10:10:33.152Z,998.56
2022-11-06T10:11:33.136Z,998.50
2022-11-06T10:12:33.151Z,998.56
2022-11-06T10:13:33.114Z,998.58
2022-11-06T10:14:33.087Z,998.56
2022-11-06T10:15:33.082Z,998.45
2022-11-06T10:16:33.100Z,998.45
2022-11-06T10:17:33.083Z,998.39
2022-11-06T10:18:33.174Z,998.35
2022-11-06T10:19:33.031Z,998.43
2022-11-06T10:20:33.047Z,998.48
2022-11-06T10:21:33.005Z,998.45
2022-11-06T10:22:33.002Z,998.40
2022-11-06T10:23:33.015Z,998.46
2022-11-06T10:24:33.018Z,998.39
2022-11-06T10:25:32.991Z,998.38
2022-11-06T10:26:33.894Z,998.32
2022-11-06T10:27:33.018Z,998.29
2022-11-06T10:28:32.935Z,998.27
2022-11-06T10:29:32.952Z,998.23
2022-11-06T10:30:32.920Z,998.19
2022-11-06T10:31:32.897Z,998.19
2022-11-06T10:32:32.907Z,998.16
2022-11-06T10:33:32.879Z,998.23
2022-11-06T10:34:32.884Z,998.07
2022-11-06T10:35:32.908Z,997.99
2022-11-06T10:36:32.846Z,998.02
2022-11-06T10:37:32.849Z,997.97
2022-11-06T10:38:32.826Z,997.98
2022-11-06T10:39:32.836Z,998.15
2022-11-06T10:40:32.797Z,998.02
2022-11-06T10:41:32.810Z,997.98
2022-11-06T10:42:37.812Z,997.96
2022-11-06T10:43:32.810Z,997.98
2022-11-06T10:44:32.751Z,997.90
2022-11-06T10:45:32.741Z,997.89
2022-11-06T10:46:32.754Z,997.84
2022-11-06T10:47:32.764Z,997.77
2022-11-06T10:48:37.080Z,997.76
2022-11-06T10:49:33.698Z,997.80
2022-11-06T10:50:32.705Z,997.83
2022-11-06T10:51:32.673Z,997.71
2022-11-06T10:52:32.667Z,997.67
2022-11-06T10:53:32.657Z,997.63
2022-11-06T10:54:32.667Z,997.59
2022-11-06T10:55:32.646Z,997.59
2022-11-06T10:56:33.760Z,997.60
2022-11-06T10:57:32.610Z,997.59
2022-11-06T10:58:32.600Z,997.51
2022-11-06T10:59:32.593Z,997.53
2022-11-06T11:00:32.627Z,997.52
2022-11-06T11:01:32.754Z,997.50
2022-11-06T11:02:32.596Z,997.51
2022-11-06T11:03:32.561Z,997.52
2022-11-06T11:04:32.528Z,997.45
2022-11-06T11:05:32.528Z,997.45
2022-11-06T11:06:32.531Z,997.42
2022-11-06T11:07:32.519Z,997.38
2022-11-06T11:08:32.538Z,997.40
2022-11-06T11:09:32.481Z,997.30
2022-11-06T11:10:32.467Z,997.34
2022-11-06T11:11:32.466Z,997.34
2022-11-06T11:12:32.444Z,997.44
2022-11-06T11:13:32.435Z,997.47
2022-11-06T11:14:32.461Z,997.44
2022-11-06T11:15:32.418Z,997.43
2022-11-06T11:16:32.403Z,997.30
2022-11-06T11:17:32.404Z,997.37
2022-11-06T11:18:32.390Z,997.32
2022-11-06T11:19:32.399Z,997.28
2022-11-06T11:20:32.386Z,997.20
2022-11-06T11:21:32.385Z,997.08
2022-11-06T11:22:33.430Z,997.10
2022-11-06T11:23:32.431Z,997.11
2022-11-06T11:24:32.332Z,997.03
2022-11-06T11:25:32.305Z,997.05
2022-11-06T11:26:32.328Z,997.03
2022-11-06T11:27:32.283Z,997.00
2022-11-06T11:28:32.295Z,997.01
2022-11-06T11:29:32.263Z,996.97
2022-11-06T11:30:32.253Z,996.94
2022-11-06T11:31:32.304Z,996.96
2022-11-06T11:32:32.228Z,996.92
2022-11-06T11:33:32.244Z,997.07
2022-11-06T11:34:32.212Z,996.90
2022-11-06T11:35:32.198Z,996.91
2022-11-06T11:36:32.202Z,996.88
2022-11-06T11:37:32.173Z,996.91
2022-11-06T11:38:32.273Z,996.84
2022-11-06T11:39:32.227Z,996.87
2022-11-06T11:40:32.188Z,996.84
2022-11-06T11:41:32.134Z,996.93
2022-11-06T11:42:32.122Z,996.85
2022-11-06T11:43:32.111Z,996.73
2022-11-06T11:44:32.100Z,996.69
2022-11-06T11:45:32.154Z,996.79
2022-11-06T11:46:32.090Z,996.72
2022-11-06T11:47:32.122Z,996.91
2022-11-06T11:48:32.071Z,996.67
2022-11-06T11:49:32.059Z,996.66
2022-11-06T11:50:32.062Z,996.65
2022-11-06T11:51:32.051Z,996.71
2022-11-06T11:52:32.020Z,996.75
2022-11-06T11:53:32.013Z,996.72
2022-11-06T11:54:32.006Z,996.71
2022-11-06T11:55:31.984Z,996.62
2022-11-06T11:57:02.274Z,996.48
2022-11-06T11:57:32.980Z,996.51
2022-11-06T11:58:31.952Z,996.58
2022-11-06T11:59:31.963Z,996.50
2022-11-06T12:00:31.946Z,996.35
2022-11-06T12:01:31.969Z,996.34
2022-11-06T12:02:32.027Z,996.47
2022-11-06T12:03:31.924Z,996.33
2022-11-06T12:04:31.937Z,996.39
2022-11-06T12:05:31.892Z,996.36
2022-11-06T12:06:31.861Z,996.37
2022-11-06T12:07:31.861Z,996.21
2022-11-06T12:08:31.845Z,996.21
2022-11-06T12:09:31.895Z,996.20
2022-11-06T12:10:31.840Z,996.19
2022-11-06T12:11:31.823Z,996.14
2022-11-06T12:12:31.819Z,996.13
2022-11-06T12:13:31.860Z,996.14
2022-11-06T12:14:31.776Z,996.10
2022-11-06T12:15:31.763Z,996.14
2022-11-06T12:16:31.793Z,996.05
2022-11-06T12:17:31.765Z,996.02
2022-11-06T12:18:31.761Z,996.01
2022-11-06T12:19:31.759Z,995.96
2022-11-06T12:20:31.740Z,995.93
2022-11-06T12:21:31.720Z,995.89
2022-11-06T12:22:31.728Z,995.93
2022-11-06T12:23:31.682Z,995.85
2022-11-06T12:24:31.702Z,995.79
2022-11-06T12:25:31.657Z,995.68
2022-11-06T12:26:31.663Z,995.73
2022-11-06T12:27:31.627Z,995.62
2022-11-06T12:28:31.636Z,995.66
2022-11-06T12:29:31.637Z,995.63
2022-11-06T12:30:31.600Z,995.71
2022-11-06T12:31:31.604Z,995.73
2022-11-06T12:32:31.576Z,995.85
2022-11-06T12:34:04.537Z,995.75
2022-11-06T12:34:32.591Z,995.71
2022-11-06T12:35:31.562Z,995.81
2022-11-06T12:36:31.541Z,995.70
2022-11-06T12:37:31.529Z,995.71
2022-11-06T12:38:31.544Z,995.64
2022-11-06T12:39:31.517Z,995.61
2022-11-06T12:40:31.542Z,995.56
2022-11-06T12:41:31.476Z,995.68
2022-11-06T12:42:31.480Z,995.62
2022-11-06T12:43:31.497Z,995.64
2022-11-06T12:44:32.288Z,995.66
2022-11-06T12:45:31.463Z,995.66
2022-11-06T12:46:31.447Z,995.63
2022-11-06T12:47:31.452Z,995.68
2022-11-06T12:48:31.405Z,995.58
2022-11-06T12:49:31.386Z,995.57
2022-11-06T12:50:31.376Z,995.54
2022-11-06T12:51:31.377Z,995.55
2022-11-06T12:52:31.376Z,995.54
2022-11-06T12:53:31.378Z,995.47
2022-11-06T12:54:31.336Z,995.33
2022-11-06T12:55:31.365Z,995.33
2022-11-06T12:56:31.324Z,995.29
2022-11-06T12:57:31.312Z,995.25
2022-11-06T12:58:31.315Z,995.25
2022-11-06T12:59:31.289Z,995.22
2022-11-06T13:00:32.048Z,995.13
2022-11-06T13:01:31.379Z,995.13
2022-11-06T13:02:31.363Z,995.21
2022-11-06T13:03:31.274Z,995.20
2022-11-06T13:04:31.231Z,995.14
2022-11-06T13:05:31.217Z,995.20
2022-11-06T13:06:31.223Z,995.16
2022-11-06T13:07:31.231Z,995.11
2022-11-06T13:08:31.214Z,995.09
2022-11-06T13:09:31.186Z,995.17
2022-11-06T13:10:31.180Z,995.24
2022-11-06T13:11:31.207Z,995.31
2022-11-06T13:12:31.147Z,995.26
2022-11-06T13:13:31.120Z,995.32
2022-11-06T13:14:31.266Z,995.30
2022-11-06T13:15:31.118Z,995.26
2022-11-06T13:16:31.093Z,995.30
2022-11-06T13:17:31.142Z,995.29
2022-11-06T13:18:31.072Z,995.31
2022-11-06T13:19:31.066Z,995.29
2022-11-06T13:20:31.081Z,995.30
2022-11-06T13:21:31.032Z,995.23
2022-11-06T13:22:31.031Z,995.25
2022-11-06T13:23:31.032Z,995.28
2022-11-06T13:24:31.050Z,995.16
2022-11-06T13:25:34.017Z,995.19
2022-11-06T13:26:31.998Z,995.17
2022-11-06T13:27:30.984Z,995.25
2022-11-06T13:28:31.026Z,995.26
2022-11-06T13:29:30.951Z,995.30
2022-11-06T13:30:30.957Z,995.22
2022-11-06T13:31:30.984Z,995.19
2022-11-06T13:32:30.918Z,995.06
2022-11-06T13:33:30.908Z,995.15
2022-11-06T13:34:30.920Z,995.19
2022-11-06T13:35:30.888Z,995.13
2022-11-06T13:36:30.868Z,995.17
2022-11-06T13:37:30.889Z,995.13
2022-11-06T13:38:30.947Z,995.15
2022-11-06T13:39:30.843Z,995.06
2022-11-06T13:40:30.828Z,995.11
2022-11-06T13:41:30.819Z,995.11
2022-11-06T13:42:30.810Z,995.02
2022-11-06T13:43:30.801Z,994.98
2022-11-06T13:44:30.858Z,994.98
2022-11-06T13:45:30.780Z,994.99
2022-11-06T13:46:30.794Z,994.95
2022-11-06T13:47:30.753Z,994.91
2022-11-06T13:48:34.594Z,994.89
2022-11-06T13:49:31.751Z,994.87
2022-11-06T13:50:30.744Z,994.90
2022-11-06T13:51:30.738Z,994.78
2022-11-06T13:52:30.747Z,994.77
2022-11-06T13:53:30.693Z,994.81
2022-11-06T13:54:30.674Z,994.77
2022-11-06T13:55:30.681Z,994.81
2022-11-06T13:56:30.654Z,994.84
2022-11-06T13:57:30.689Z,994.78
2022-11-06T13:58:30.649Z,994.77
2022-11-06T13:59:33.844Z,994.71
2022-11-06T14:00:30.640Z,994.65
2022-11-06T14:01:30.781Z,994.62
2022-11-06T14:02:30.907Z,994.60
2022-11-06T14:03:30.604Z,994.66
2022-11-06T14:04:30.569Z,994.65
2022-11-06T14:05:30.596Z,994.64
2022-11-06T14:06:30.542Z,994.61
2022-11-06T14:07:30.537Z,994.62
2022-11-06T14:08:30.548Z,994.62
2022-11-06T14:09:30.536Z,994.63
2022-11-06T14:10:30.510Z,994.68
2022-11-06T14:11:30.501Z,994.69
2022-11-06T14:12:30.492Z,994.66
2022-11-06T14:13:30.466Z,994.68
2022-11-06T14:14:30.498Z,994.69
2022-11-06T14:15:30.460Z,994.72
2022-11-06T14:16:30.429Z,994.80
2022-11-06T14:17:30.479Z,994.80
2022-11-06T14:18:30.428Z,994.85
2022-11-06T14:19:30.411Z,994.79
2022-11-06T14:20:30.405Z,994.65
2022-11-06T14:21:30.383Z,994.74
2022-11-06T14:22:30.396Z,994.63
2022-11-06T14:23:30.365Z,994.65
2022-11-06T14:24:30.391Z,994.65
2022-11-06T14:25:30.347Z,994.66
2022-11-06T14:26:30.330Z,994.68
2022-11-06T14:27:30.384Z,994.70
2022-11-06T14:28:30.308Z,994.59
2022-11-06T14:29:30.330Z,994.63
2022-11-06T14:30:50.157Z,994.57
2022-11-06T14:31:31.314Z,994.67
2022-11-06T14:32:30.261Z,994.69
2022-11-06T14:33:30.254Z,994.68
2022-11-06T14:34:30.263Z,994.71
2022-11-06T14:35:30.232Z,994.63
2022-11-06T14:36:30.219Z,994.62
2022-11-06T14:37:31.350Z,994.64
2022-11-06T14:38:30.199Z,994.58
2022-11-06T14:39:30.192Z,994.55
2022-11-06T14:40:30.174Z,994.57
2022-11-06T14:41:30.172Z,994.56
2022-11-06T14:42:30.151Z,994.53
2022-11-06T14:43:30.202Z,994.51
2022-11-06T14:44:30.131Z,994.51
2022-11-06T14:45:30.177Z,994.51
2022-11-06T14:46:30.111Z,994.56
2022-11-06T14:47:30.108Z,994.49
2022-11-06T14:48:30.084Z,994.54
2022-11-06T14:49:30.118Z,994.66
2022-11-06T14:50:30.127Z,994.58
2022-11-06T14:51:30.072Z,994.62
2022-11-06T14:52:30.048Z,994.63
2022-11-06T14:53:30.049Z,994.58
2022-11-06T14:54:30.035Z,994.67
2022-11-06T14:55:30.306Z,994.68
2022-11-06T14:56:30.036Z,994.77
2022-11-06T14:57:30.012Z,994.78
2022-11-06T14:58:29.977Z,994.82
2022-11-06T14:59:29.965Z,994.81
2022-11-06T15:00:29.992Z,994.84
2022-11-06T15:01:30.034Z,994.79
2022-11-06T15:02:30.058Z,994.85
2022-11-06T15:03:29.931Z,994.77
2022-11-06T15:04:29.909Z,994.80
2022-11-06T15:05:29.923Z,994.87
2022-11-06T15:06:29.945Z,994.86
2022-11-06T15:08:02.737Z,994.88
2022-11-06T15:08:30.937Z,994.87
2022-11-06T15:09:29.851Z,994.94
2022-11-06T15:10:29.846Z,994.94
2022-11-06T15:11:29.862Z,994.98
2022-11-06T15:12:29.830Z,994.92
2022-11-06T15:13:29.820Z,994.91
2022-11-06T15:14:29.824Z,994.86
2022-11-06T15:15:29.794Z,994.90
2022-11-06T15:16:29.834Z,994.88
2022-11-06T15:17:29.768Z,994.83
2022-11-06T15:18:29.751Z,994.82
2022-11-06T15:19:29.790Z,994.88
2022-11-06T15:20:29.735Z,994.84
2022-11-06T15:21:29.735Z,994.86
2022-11-06T15:22:29.752Z,994.80
2022-11-06T15:23:29.707Z,994.82
2022-11-06T15:24:29.724Z,994.72
2022-11-06T15:25:29.685Z,994.66
2022-11-06T15:26:29.694Z,994.65
2022-11-06T15:27:29.663Z,994.68
2022-11-06T15:28:29.665Z,994.63
2022-11-06T15:29:29.639Z,994.69
2022-11-06T15:30:29.664Z,994.75
2022-11-06T15:31:29.613Z,994.63
2022-11-06T15:32:29.617Z,994.65
2022-11-06T15:33:29.609Z,994.71
2022-11-06T15:34:29.582Z,994.67
2022-11-06T15:35:29.595Z,994.74
2022-11-06T15:36:29.577Z,994.72
2022-11-06T15:37:29.546Z,994.60
2022-11-06T15:38:29.593Z,994.55
2022-11-06T15:39:29.529Z,994.55
2022-11-06T15:40:29.550Z,994.70
2022-11-06T15:41:29.510Z,994.64
2022-11-06T15:42:29.499Z,994.74
2022-11-06T15:43:29.485Z,994.75
2022-11-06T15:44:29.516Z,994.76
2022-11-06T15:45:29.828Z,994.77
2022-11-06T15:46:29.448Z,994.77
2022-11-06T15:47:29.454Z,994.76
2022-11-06T15:48:29.449Z,994.77
2022-11-06T15:49:29.417Z,994.81
2022-11-06T15:50:29.789Z,994.77
2022-11-06T15:51:29.414Z,994.74
2022-11-06T15:52:29.394Z,994.76
2022-11-06T15:53:29.390Z,994.78
2022-11-06T15:54:30.115Z,994.74
2022-11-06T15:55:29.382Z,994.71
2022-11-06T15:56:29.347Z,994.70
2022-11-06T15:57:29.333Z,994.78
2022-11-06T15:58:31.111Z,994.68
2022-11-06T15:59:29.333Z,994.69
2022-11-06T16:00:29.320Z,994.65
2022-11-06T16:01:29.364Z,994.69
2022-11-06T16:02:29.500Z,994.67
2022-11-06T16:03:29.279Z,994.69
2022-11-06T16:04:29.267Z,994.68
2022-11-06T16:05:29.251Z,994.65
2022-11-06T16:06:29.268Z,994.73
2022-11-06T16:07:29.235Z,994.71
2022-11-06T16:08:29.210Z,994.69
2022-11-06T16:09:29.198Z,994.64
2022-11-06T16:10:29.234Z,994.62
2022-11-06T16:11:29.209Z,994.60
2022-11-06T16:12:29.195Z,994.58
2022-11-06T16:13:29.154Z,994.58
2022-11-06T16:14:29.192Z,994.53
2022-11-06T16:15:29.150Z,994.58
2022-11-06T16:16:29.126Z,994.58
2022-11-06T16:17:29.136Z,994.58
2022-11-06T16:18:29.166Z,994.58
2022-11-06T16:19:29.096Z,994.63
2022-11-06T16:20:29.074Z,994.58
2022-11-06T16:21:29.116Z,994.55
2022-11-06T16:22:29.062Z,994.45
2022-11-06T16:23:36.095Z,994.43
2022-11-06T16:24:29.074Z,994.41
2022-11-06T16:25:29.029Z,994.32
2022-11-06T16:26:29.053Z,994.37
2022-11-06T16:27:29.043Z,994.32
2022-11-06T16:28:28.996Z,994.23
2022-11-06T16:29:29.129Z,994.11
2022-11-06T16:30:29.003Z,994.08
2022-11-06T16:31:28.974Z,994.01
2022-11-06T16:32:28.946Z,993.97
2022-11-06T16:33:28.938Z,993.96
2022-11-06T16:34:28.940Z,993.95
2022-11-06T16:35:28.933Z,993.96
2022-11-06T16:36:28.959Z,993.94
2022-11-06T16:37:28.889Z,993.86
2022-11-06T16:38:41.494Z,993.85
2022-11-06T16:39:47.869Z,993.83
2022-11-06T16:40:29.854Z,993.84
2022-11-06T16:41:28.909Z,993.80
2022-11-06T16:42:28.864Z,993.80
2022-11-06T16:43:28.825Z,993.75
2022-11-06T16:44:31.611Z,993.72
2022-11-06T16:45:28.862Z,993.71
2022-11-06T16:46:28.810Z,993.64
2022-11-06T16:47:28.780Z,993.60
2022-11-06T16:48:28.793Z,993.56
2022-11-06T16:49:28.769Z,993.61
2022-11-06T16:50:28.780Z,993.59
2022-11-06T16:51:28.737Z,993.57
2022-11-06T16:52:28.738Z,993.61
2022-11-06T16:53:28.717Z,993.63
2022-11-06T16:54:28.719Z,993.59
2022-11-06T16:55:28.708Z,993.48
2022-11-06T16:56:28.719Z,993.51
2022-11-06T16:57:28.692Z,993.59
2022-11-06T16:58:28.689Z,993.64
2022-11-06T16:59:28.657Z,993.64
2022-11-06T17:00:28.703Z,993.63
2022-11-06T17:01:28.745Z,993.51
2022-11-06T17:02:28.788Z,993.44
2022-11-06T17:03:28.619Z,993.45
2022-11-06T17:04:28.599Z,993.39
2022-11-06T17:05:28.609Z,993.53
2022-11-06T17:06:29.292Z,993.69
2022-11-06T17:07:28.563Z,993.86
2022-11-06T17:08:28.553Z,993.97
2022-11-06T17:09:28.551Z,994.06
2022-11-06T17:10:28.561Z,994.07
2022-11-06T17:11:28.523Z,994.06
2022-11-06T17:12:28.539Z,993.95
2022-11-06T17:13:28.558Z,994.01
2022-11-06T17:14:28.516Z,993.96
2022-11-06T17:15:28.482Z,994.00
2022-11-06T17:16:28.509Z,993.97
2022-11-06T17:17:28.467Z,993.95
2022-11-06T17:18:28.462Z,993.92
2022-11-06T17:19:28.463Z,993.96
2022-11-06T17:20:28.444Z,994.01
2022-11-06T17:21:28.433Z,993.99
2022-11-06T17:22:28.407Z,993.98
2022-11-06T17:23:28.434Z,993.98
2022-11-06T17:24:36.446Z,994.00
2022-11-06T17:25:29.535Z,994.07
2022-11-06T17:26:28.375Z,994.07
2022-11-06T17:27:28.363Z,994.06
2022-11-06T17:28:28.379Z,994.08
2022-11-06T17:29:28.320Z,994.06
2022-11-06T17:30:28.857Z,994.02
2022-11-06T17:31:28.314Z,994.04
2022-11-06T17:32:28.294Z,994.10
2022-11-06T17:33:28.287Z,994.00
2022-11-06T17:34:28.282Z,994.01
2022-11-06T17:35:28.258Z,994.03
2022-11-06T17:36:28.282Z,993.98
2022-11-06T17:37:28.240Z,993.94
2022-11-06T17:38:28.239Z,993.87
2022-11-06T17:39:28.220Z,993.89
2022-11-06T17:40:28.238Z,993.86
2022-11-06T17:41:28.199Z,993.92
2022-11-06T17:42:28.217Z,993.92
2022-11-06T17:43:28.188Z,993.93
2022-11-06T17:44:28.193Z,993.92
2022-11-06T17:45:28.157Z,993.90
2022-11-06T17:46:28.154Z,993.88
2022-11-06T17:47:28.121Z,993.87
2022-11-06T17:48:28.174Z,993.95
2022-11-06T17:49:28.142Z,993.88
2022-11-06T17:50:28.115Z,993.86
2022-11-06T17:51:28.086Z,993.86
2022-11-06T17:52:28.071Z,993.83
2022-11-06T17:53:28.069Z,993.88
2022-11-06T17:54:28.090Z,993.92
2022-11-06T17:55:28.044Z,993.87
2022-11-06T17:56:28.061Z,993.76
2022-11-06T17:57:28.024Z,993.76